Time;durP1;ratioP1;P1;durP2;ratioP2;P2;SDS_P1;SDS_P2;PMS_P1;PMS_P2;Temp;Humidity;BMP_temperature;BMP_pressure;BME280_temperature;BME280_humidity;BME280_pressure;Samples;Min_cycle;Max_cycle;Signal;HPM_P1;HPM_P2
2023/06/27 00:01:08;;;;;;;6.63;4.80;;;;;;;27.95;47.80;100619.66;5055716;28;20052;-87
2023/06/27 00:03:36;;;;;;;8.35;4.57;;;;;;;27.94;47.85;100609.63;5073186;28;20044;-87
2023/06/27 00:06:04;;;;;;;7.70;4.35;;;;;;;27.81;47.46;100598.72;5071995;28;20041;-87
2023/06/27 00:08:33;;;;;;;6.20;4.40;;;;;;;28.00;47.50;100585.53;5073102;28;20044;-87
2023/06/27 00:11:01;;;;;;;6.80;4.10;;;;;;;28.07;47.24;100595.94;5071838;28;20498;-87
2023/06/27 00:13:29;;;;;;;5.93;4.57;;;;;;;28.17;46.81;100583.91;5072627;28;20048;-87
2023/06/27 00:16:00;;;;;;;5.45;4.25;;;;;;;28.19;47.26;100589.94;5071887;28;20052;-87
2023/06/27 00:18:34;;;;;;;8.43;4.85;;;;;;;28.13;46.87;100586.72;5072915;28;20403;-87
2023/06/27 00:21:02;;;;;;;5.28;4.35;;;;;;;28.00;47.56;100585.53;5072968;28;20506;-87
2023/06/27 00:23:33;;;;;;;7.88;4.82;;;;;;;27.99;48.03;100595.13;5072813;28;20052;-86
2023/06/27 00:26:03;;;;;;;6.38;4.38;;;;;;;27.82;47.45;100596.75;5072865;28;20051;-87
2023/06/27 00:28:31;;;;;;;7.18;4.20;;;;;;;28.11;46.86;100596.78;5072900;28;20048;-86
2023/06/27 00:30:59;;;;;;;5.18;4.45;;;;;;;27.99;47.31;100595.94;5072748;28;20051;-86
2023/06/27 00:33:27;;;;;;;9.18;4.50;;;;;;;27.90;47.30;100593.53;5071388;28;20051;-87
2023/06/27 00:35:55;;;;;;;5.20;4.43;;;;;;;28.00;46.92;100591.16;5072662;28;20053;-86
2023/06/27 00:38:23;;;;;;;7.68;4.72;;;;;;;28.14;46.24;100591.13;5072662;28;20476;-86
2023/06/27 00:40:51;;;;;;;6.90;4.45;;;;;;;27.95;45.91;100588.72;5072585;28;20048;-86
2023/06/27 00:43:19;;;;;;;7.75;4.25;;;;;;;27.82;46.55;100594.75;5037456;28;20047;-86
2023/06/27 00:45:49;;;;;;;5.97;3.85;;;;;;;27.75;46.87;100594.72;5072593;28;20068;-86
2023/06/27 00:48:19;;;;;;;5.35;3.88;;;;;;;27.79;46.14;100603.97;5071352;28;20044;-86
2023/06/27 00:50:52;;;;;;;5.18;4.13;;;;;;;27.68;46.39;100603.13;5072509;28;20052;-86
2023/06/27 00:53:22;;;;;;;5.20;3.88;;;;;;;27.46;47.56;100597.44;5072250;28;20044;-86
2023/06/27 00:55:51;;;;;;;5.60;4.10;;;;;;;27.49;47.07;100593.81;5070640;28;20045;-86
2023/06/27 00:58:20;;;;;;;7.15;4.18;;;;;;;27.57;47.31;100592.63;5072308;28;20048;-86
2023/06/27 01:00:48;;;;;;;5.10;4.18;;;;;;;27.43;47.57;100581.38;5071290;28;20041;-86
2023/06/27 01:03:16;;;;;;;4.82;4.05;;;;;;;27.68;47.39;100592.69;5071050;28;20040;-87
2023/06/27 01:05:44;;;;;;;7.82;4.28;;;;;;;27.80;47.30;100585.88;5072437;28;20036;-86
2023/06/27 01:08:31;;;;;;;6.05;4.60;;;;;;;27.53;48.53;100583.41;5054357;28;20047;-86
2023/06/27 01:11:08;;;;;;;7.63;4.78;;;;;;;27.37;48.33;100575.34;5072327;28;20106;-86
2023/06/27 01:13:47;;;;;;;6.82;4.57;;;;;;;27.35;48.52;100581.34;5072021;28;20471;-86
2023/06/27 01:16:22;;;;;;;4.63;3.90;;;;;;;27.56;48.33;100584.63;5072211;28;20484;-86
2023/06/27 01:18:51;;;;;;;8.50;4.25;;;;;;;27.72;48.48;100578.66;5070936;28;20075;-86
2023/06/27 01:21:21;;;;;;;4.55;4.10;;;;;;;27.67;49.26;100584.66;5070988;28;20059;-86
2023/06/27 01:23:55;;;;;;;6.78;4.88;;;;;;;27.57;49.78;100583.41;5071996;28;20064;-86
2023/06/27 01:26:24;;;;;;;8.32;5.03;;;;;;;27.63;49.73;100573.41;5070937;28;20402;-86
2023/06/27 01:28:53;;;;;;;5.60;4.40;;;;;;;27.36;50.69;100568.91;5070894;28;20044;-86
2023/06/27 01:31:24;;;;;;;6.22;4.57;;;;;;;27.39;50.26;100580.53;5070999;28;20487;-86
2023/06/27 01:34:05;;;;;;;7.77;4.50;;;;;;;27.47;49.67;100573.75;5071910;28;20484;-86
2023/06/27 01:36:47;;;;;;;6.95;4.75;;;;;;;27.25;50.76;100573.69;5072022;28;20506;-86
2023/06/27 01:39:27;;;;;;;5.03;4.53;;;;;;;27.14;50.51;100565.22;5072130;28;20079;-86
2023/06/27 01:42:04;;;;;;;6.03;4.35;;;;;;;26.93;50.80;100555.50;5070797;28;20044;-86
2023/06/27 01:44:33;;;;;;;7.13;4.55;;;;;;;27.09;50.51;100560.75;5071935;28;20055;-86
2023/06/27 01:47:02;;;;;;;7.53;4.55;;;;;;;26.94;50.90;100556.31;5070715;28;20056;-86
2023/06/27 01:49:30;;;;;;;5.25;4.15;;;;;;;27.03;50.50;100558.75;5072024;28;20044;-86
2023/06/27 01:51:58;;;;;;;6.82;4.30;;;;;;;26.98;50.75;100565.56;5070411;28;20041;-86
2023/06/27 01:54:27;;;;;;;9.18;4.50;;;;;;;26.92;50.27;100556.69;5071840;28;20048;-86
2023/06/27 01:56:55;;;;;;;8.30;4.82;;;;;;;26.94;50.59;100550.69;5070623;28;20048;-86
2023/06/27 01:59:23;;;;;;;4.18;3.78;;;;;;;26.90;50.45;100555.44;5070497;28;20056;-86
2023/06/27 02:01:51;;;;;;;6.60;4.80;;;;;;;26.82;50.34;100547.00;5054099;28;20052;-85
2023/06/27 02:04:19;;;;;;;5.43;4.07;;;;;;;26.63;51.17;100545.28;5071701;28;20479;-86
2023/06/27 02:06:47;;;;;;;10.30;4.72;;;;;;;26.93;50.17;100529.44;5070667;28;20051;-86
2023/06/27 02:09:15;;;;;;;6.18;4.55;;;;;;;26.79;50.23;100533.72;5057828;28;20056;-86
2023/06/27 02:11:43;;;;;;;6.13;4.30;;;;;;;26.50;51.28;100533.59;5074394;28;20053;-86
2023/06/27 02:14:11;;;;;;;8.18;4.40;;;;;;;26.47;51.48;100530.75;5074950;28;20060;-86
2023/06/27 02:16:39;;;;;;;5.43;4.38;;;;;;;26.38;51.46;100531.09;5074146;28;20491;-85
2023/06/27 02:19:08;;;;;;;8.90;4.43;;;;;;;26.48;51.81;100535.19;5075228;28;20491;-86
2023/06/27 02:21:36;;;;;;;5.97;4.40;;;;;;;26.83;50.42;100534.56;5075232;28;20048;-86
2023/06/27 02:24:05;;;;;;;6.20;4.70;;;;;;;26.71;50.26;100537.72;5075144;28;20049;-86
2023/06/27 02:26:32;;;;;;;6.93;4.63;;;;;;;26.64;50.99;100538.47;5073954;28;20048;-86
2023/06/27 02:29:02;;;;;;;7.45;4.40;;;;;;;26.59;51.42;100529.63;5073897;28;20487;-86
2023/06/27 02:31:31;;;;;;;5.88;4.60;;;;;;;26.62;51.19;100534.44;5075145;28;20048;-86
2023/06/27 02:34:00;;;;;;;6.40;4.43;;;;;;;26.59;51.20;100538.06;5073678;28;20597;-86
2023/06/27 02:36:28;;;;;;;6.18;3.75;;;;;;;26.52;51.21;100527.56;5075015;28;20047;-86
2023/06/27 02:39:00;;;;;;;6.85;4.45;;;;;;;26.45;51.59;100527.53;5073640;28;20055;-86
2023/06/27 02:41:28;;;;;;;8.13;4.60;;;;;;;26.56;51.19;100525.59;5073928;28;20051;-86
2023/06/27 02:43:56;;;;;;;6.00;4.45;;;;;;;26.66;51.06;100524.88;5074797;28;20049;-86
2023/06/27 02:46:27;;;;;;;5.40;4.53;;;;;;;26.48;51.05;100524.75;5074866;28;20487;-86
2023/06/27 02:48:55;;;;;;;6.10;4.75;;;;;;;26.60;50.91;100520.00;5073558;28;20502;-85
2023/06/27 02:51:24;;;;;;;6.07;4.40;;;;;;;26.75;50.70;100510.47;5073443;28;20514;-86
2023/06/27 02:53:52;;;;;;;8.70;4.85;;;;;;;26.57;50.87;100527.22;5073442;28;20044;-85
2023/06/27 02:56:20;;;;;;;5.93;4.35;;;;;;;26.28;51.19;100521.41;5073500;28;20044;-85
2023/06/27 02:58:48;;;;;;;5.93;4.53;;;;;;;26.18;52.01;100522.91;5073344;28;20052;-86
2023/06/27 03:01:17;;;;;;;5.95;4.55;;;;;;;26.45;51.50;100536.78;5073320;28;20488;-85
2023/06/27 03:03:47;;;;;;;7.63;5.20;;;;;;;26.44;51.44;100532.34;5073103;28;20044;-86
2023/06/27 03:06:15;;;;;;;7.65;4.90;;;;;;;26.39;52.08;100532.72;5073082;28;20052;-86
2023/06/27 03:08:44;;;;;;;7.13;4.15;;;;;;;26.53;51.54;100521.59;5073305;28;20067;-85
2023/06/27 03:11:12;;;;;;;6.28;4.30;;;;;;;26.49;51.42;100536.78;5073164;28;20061;-85
2023/06/27 03:13:40;;;;;;;6.85;4.50;;;;;;;26.36;51.83;100523.09;5072748;28;20491;-85
2023/06/27 03:16:09;;;;;;;5.28;4.15;;;;;;;26.25;52.32;100513.78;5057022;28;20037;-85
2023/06/27 03:18:39;;;;;;;7.30;4.13;;;;;;;26.33;51.87;100514.66;5073036;28;20044;-86
2023/06/27 03:21:07;;;;;;;5.60;4.45;;;;;;;26.38;51.85;100519.88;5056010;28;20045;-86
2023/06/27 03:23:35;;;;;;;8.25;4.93;;;;;;;25.98;52.93;100506.34;5074090;28;20039;-85
2023/06/27 03:26:03;;;;;;;7.78;4.65;;;;;;;26.14;52.45;100513.66;5072894;28;20041;-85
2023/06/27 03:28:32;;;;;;;5.20;3.85;;;;;;;26.34;51.69;100505.81;5106540;28;20055;-85
2023/06/27 03:31:00;;;;;;;7.10;4.13;;;;;;;26.19;52.62;100521.72;5074002;28;20054;-85
2023/06/27 03:33:28;;;;;;;7.07;4.70;;;;;;;26.03;54.17;100524.81;5072696;28;20364;-85
2023/06/27 03:35:57;;;;;;;6.78;4.70;;;;;;;25.99;53.67;100521.16;5072753;28;20041;-86
2023/06/27 03:38:25;;;;;;;7.25;4.65;;;;;;;25.98;54.63;100519.56;5073740;28;20075;-86
2023/06/27 03:40:53;;;;;;;7.82;4.60;;;;;;;26.24;53.37;100515.78;5072548;28;20495;-85
2023/06/27 03:43:21;;;;;;;5.60;4.57;;;;;;;26.25;53.00;100533.44;5072631;28;20051;-86
2023/06/27 03:45:49;;;;;;;9.07;4.55;;;;;;;26.20;53.46;100520.53;5072543;28;20396;-86
2023/06/27 03:48:18;;;;;;;7.97;4.82;;;;;;;25.97;53.90;100524.38;5073594;28;20040;-86
2023/06/27 03:50:46;;;;;;;6.35;4.63;;;;;;;25.71;54.53;100514.94;5072378;28;20399;-85
2023/06/27 03:53:14;;;;;;;5.35;3.92;;;;;;;25.81;54.10;100516.22;5072277;28;20399;-86
2023/06/27 03:55:42;;;;;;;5.78;4.45;;;;;;;25.99;53.79;100513.56;5073577;28;20051;-85
2023/06/27 03:58:11;;;;;;;7.30;4.80;;;;;;;26.16;53.26;100511.31;5055898;28;20040;-85
2023/06/27 04:00:42;;;;;;;4.60;4.10;;;;;;;26.19;53.00;100524.53;5073326;28;20044;-86
2023/06/27 04:03:10;;;;;;;6.85;4.28;;;;;;;26.26;52.74;100526.63;5072116;28;20036;-86
2023/06/27 04:05:39;;;;;;;10.93;4.60;;;;;;;26.17;53.26;100515.72;5072125;28;20048;-86
2023/06/27 04:08:07;;;;;;;7.20;4.63;;;;;;;26.06;53.02;100510.03;5071926;28;20480;-86
2023/06/27 04:10:35;;;;;;;7.18;4.40;;;;;;;26.16;53.12;100519.72;5073077;28;20048;-86
2023/06/27 04:13:03;;;;;;;6.78;4.75;;;;;;;26.01;53.80;100511.19;5071524;28;20056;-86
2023/06/27 04:15:39;;;;;;;5.95;4.85;;;;;;;25.89;53.62;100509.50;5055583;28;20046;-86
2023/06/27 04:18:09;;;;;;;8.27;4.57;;;;;;;25.99;53.84;100516.38;5071905;28;20045;-86
2023/06/27 04:20:37;;;;;;;7.40;4.60;;;;;;;25.89;54.67;100514.28;5071735;28;20052;-86
2023/06/27 04:23:05;;;;;;;8.18;4.47;;;;;;;26.07;54.72;100527.63;5071685;28;20041;-86
2023/06/27 04:25:33;;;;;;;7.93;4.93;;;;;;;26.11;54.12;100518.09;5071720;28;20040;-86
2023/06/27 04:28:04;;;;;;;8.70;5.10;;;;;;;25.99;54.34;100519.19;5071700;28;20049;-86
2023/06/27 04:30:31;;;;;;;8.73;5.07;;;;;;;26.00;54.50;100522.78;5071042;28;20037;-86
2023/06/27 04:33:02;;;;;;;8.77;4.53;;;;;;;26.14;53.89;100522.91;5072253;28;20044;-86
2023/06/27 04:35:31;;;;;;;8.82;4.95;;;;;;;26.13;54.46;100524.09;5072690;28;20055;-86
2023/06/27 04:37:59;;;;;;;8.30;4.90;;;;;;;26.27;53.71;100523.44;5071423;28;20403;-85
2023/06/27 04:40:27;;;;;;;7.85;5.18;;;;;;;26.14;54.01;100516.47;5072637;28;20119;-85
2023/06/27 04:42:55;;;;;;;8.50;4.80;;;;;;;26.22;54.12;100512.53;5071362;28;20040;-86
2023/06/27 04:45:23;;;;;;;8.52;5.05;;;;;;;26.13;54.16;100524.09;5072434;28;20048;-85
2023/06/27 04:47:51;;;;;;;9.88;5.10;;;;;;;26.31;53.57;100523.44;5071400;28;20049;-85
2023/06/27 04:50:19;;;;;;;7.85;5.50;;;;;;;26.19;54.04;100521.72;5072404;28;20040;-85
2023/06/27 04:52:47;;;;;;;9.27;5.50;;;;;;;26.20;54.58;100528.94;5071155;28;20048;-85
2023/06/27 04:55:15;;;;;;;10.13;5.10;;;;;;;26.27;54.67;100523.44;5072378;28;20045;-85
2023/06/27 04:57:43;;;;;;;8.60;5.22;;;;;;;26.38;54.26;100531.09;5071139;28;20052;-86
2023/06/27 05:00:12;;;;;;;15.00;4.90;;;;;;;26.32;54.46;100522.25;5072286;28;20044;-87
2023/06/27 05:02:40;;;;;;;14.88;6.40;;;;;;;26.45;54.83;100533.97;5071052;28;20071;-85
2023/06/27 05:05:17;;;;;;;15.02;5.20;;;;;;;26.55;54.14;100524.78;5072211;28;20040;-85
2023/06/27 05:07:45;;;;;;;8.95;5.55;;;;;;;26.60;54.18;100536.84;5072297;28;20511;-85
2023/06/27 05:10:13;;;;;;;12.65;4.88;;;;;;;26.47;54.95;100525.94;5072182;28;20040;-85
2023/06/27 05:12:41;;;;;;;11.27;5.07;;;;;;;26.47;55.06;100522.34;5072943;28;20510;-85
2023/06/27 05:15:09;;;;;;;6.97;5.18;;;;;;;26.55;54.19;100524.78;5092198;28;20043;-85
2023/06/27 05:17:37;;;;;;;7.97;4.43;;;;;;;26.72;53.37;100528.09;5091451;28;20395;-85
2023/06/27 05:20:06;;;;;;;6.95;4.47;;;;;;;26.87;53.34;100534.56;5092178;28;20075;-85
2023/06/27 05:22:34;;;;;;;6.70;4.70;;;;;;;26.87;53.26;100528.97;5089078;28;20044;-85
2023/06/27 05:25:02;;;;;;;7.43;5.05;;;;;;;26.83;53.72;100523.34;5075739;28;20051;-85
2023/06/27 05:27:30;;;;;;;13.30;5.80;;;;;;;26.89;53.66;100531.38;5092255;28;20044;-85
2023/06/27 05:29:58;;;;;;;8.07;4.85;;;;;;;27.04;53.38;100523.84;5091558;28;20052;-85
2023/06/27 05:32:26;;;;;;;10.20;5.10;;;;;;;27.09;53.25;100518.66;5091043;28;20051;-85
2023/06/27 05:34:54;;;;;;;10.68;4.88;;;;;;;27.23;52.86;100525.53;5091066;28;20048;-85
2023/06/27 05:37:22;;;;;;;6.32;5.00;;;;;;;27.31;51.68;100529.94;5091598;28;20051;-85
2023/06/27 05:39:50;;;;;;;5.78;4.18;;;;;;;27.39;51.37;100515.91;5076598;28;20055;-86
2023/06/27 05:42:18;;;;;;;13.88;5.20;;;;;;;27.40;50.86;100520.34;5072723;28;20041;-86
2023/06/27 05:44:46;;;;;;;7.30;4.53;;;;;;;27.47;50.94;100514.75;5076043;28;20395;-86
2023/06/27 05:47:14;;;;;;;6.95;4.65;;;;;;;27.52;51.53;100525.59;5088369;28;20486;-78
2023/06/27 05:49:44;;;;;;;8.40;4.85;;;;;;;27.66;50.98;100521.22;5095833;28;20395;-78
2023/06/27 05:52:12;;;;;;;7.47;4.50;;;;;;;27.69;50.60;100526.03;5094393;28;20051;-79
2023/06/27 05:54:41;;;;;;;7.28;4.70;;;;;;;27.77;50.58;100527.66;5095380;28;20039;-81
2023/06/27 05:57:10;;;;;;;7.28;5.35;;;;;;;27.81;51.21;100527.66;5095256;28;20052;-79
2023/06/27 05:59:38;;;;;;;10.02;4.70;;;;;;;27.95;50.17;100513.59;5095585;28;20036;-79
2023/06/27 06:02:06;;;;;;;10.85;4.75;;;;;;;28.23;49.93;100530.88;5095365;28;20051;-78
2023/06/27 06:04:34;;;;;;;6.63;4.57;;;;;;;28.14;50.48;100522.81;5094501;28;20055;-78
2023/06/27 06:07:03;;;;;;;6.25;4.32;;;;;;;28.22;49.83;100523.63;5093578;28;20048;-78
2023/06/27 06:09:32;;;;;;;6.75;4.80;;;;;;;28.19;48.50;100518.81;5095064;28;20040;-79
2023/06/27 06:12:00;;;;;;;8.43;5.07;;;;;;;28.38;48.95;100518.41;5095323;28;20036;-78
2023/06/27 06:14:29;;;;;;;7.10;4.65;;;;;;;28.54;48.34;100520.78;5096143;28;20052;-79
2023/06/27 06:16:57;;;;;;;8.98;4.50;;;;;;;28.57;47.96;100527.59;5096371;28;20388;-79
2023/06/27 06:19:26;;;;;;;66.30;9.73;;;;;;;28.70;47.56;100522.34;5096253;28;20047;-78
2023/06/27 06:21:54;;;;;;;14.52;5.00;;;;;;;28.77;46.53;100521.50;5076001;28;20057;-79
2023/06/27 06:24:23;;;;;;;12.80;5.35;;;;;;;28.86;46.83;100516.28;5101099;28;20044;-78
2023/06/27 06:26:52;;;;;;;9.43;5.20;;;;;;;28.90;46.21;100510.63;5095131;28;20048;-79
2023/06/27 06:29:21;;;;;;;8.25;5.18;;;;;;;28.95;46.68;100518.66;5096441;28;20040;-78
2023/06/27 06:31:49;;;;;;;10.75;5.22;;;;;;;29.04;45.38;100521.03;5095943;28;20051;-78
2023/06/27 06:34:18;;;;;;;7.03;5.25;;;;;;;29.14;44.95;100525.81;5095442;28;20509;-78
2023/06/27 06:36:46;;;;;;;9.10;5.47;;;;;;;29.12;44.81;100511.31;5094979;28;20055;-79
2023/06/27 06:39:14;;;;;;;8.00;5.22;;;;;;;29.26;44.82;100523.75;5094307;28;20048;-76
2023/06/27 06:41:43;;;;;;;9.23;5.35;;;;;;;29.32;43.68;100517.25;5075836;28;20055;-76
2023/06/27 06:44:12;;;;;;;6.68;4.53;;;;;;;29.42;43.37;100526.84;5095523;28;20054;-80
2023/06/27 06:46:41;;;;;;;11.27;5.15;;;;;;;29.48;43.75;100528.03;5095941;28;20051;-79
2023/06/27 06:49:10;;;;;;;8.32;5.03;;;;;;;29.51;43.54;100532.06;5094334;28;20055;-78
2023/06/27 06:51:38;;;;;;;5.88;4.38;;;;;;;29.47;42.96;100529.22;5092847;28;20055;-78
2023/06/27 06:54:07;;;;;;;6.53;4.25;;;;;;;29.59;42.52;100532.81;5092930;28;20521;-80
2023/06/27 06:56:36;;;;;;;8.23;4.75;;;;;;;29.64;42.39;100529.56;5092189;28;20055;-79
2023/06/27 06:59:06;;;;;;;10.90;4.63;;;;;;;29.68;42.85;100524.69;5085861;28;20040;-78
2023/06/27 07:01:34;;;;;;;6.55;4.75;;;;;;;29.73;41.01;100544.00;5094055;28;20036;-78
2023/06/27 07:04:03;;;;;;;9.10;6.95;;;;;;;29.81;41.22;100532.66;5094515;28;20399;-78
2023/06/27 07:06:32;;;;;;;10.05;4.63;;;;;;;30.04;42.10;100535.69;5094071;28;20067;-78
2023/06/27 07:09:00;;;;;;;8.85;4.85;;;;;;;30.15;41.55;100524.31;5093833;28;20040;-78
2023/06/27 07:11:29;;;;;;;6.53;4.60;;;;;;;30.17;40.30;100523.91;5094108;28;20043;-79
2023/06/27 07:13:59;;;;;;;7.82;4.40;;;;;;;30.29;39.65;100523.38;5093326;28;20052;-79
2023/06/27 07:16:27;;;;;;;5.72;3.80;;;;;;;30.41;40.01;100529.72;5092471;28;20075;-79
2023/06/27 07:18:56;;;;;;;6.63;4.50;;;;;;;30.52;39.98;100533.25;5092692;28;20064;-79
2023/06/27 07:21:24;;;;;;;5.85;4.28;;;;;;;30.46;39.52;100536.94;5093628;28;20051;-79
2023/06/27 07:23:56;;;;;;;8.98;4.20;;;;;;;30.47;39.38;100528.03;5093643;28;20048;-79
2023/06/27 07:26:24;;;;;;;5.95;4.32;;;;;;;30.41;39.94;100524.88;5072614;28;20060;-79
2023/06/27 07:28:53;;;;;;;6.35;4.32;;;;;;;30.44;39.44;100535.34;5089223;28;20048;-79
2023/06/27 07:31:22;;;;;;;8.27;4.25;;;;;;;30.44;40.33;100531.69;5094386;28;20051;-80
2023/06/27 07:33:50;;;;;;;7.10;4.28;;;;;;;30.55;39.71;100532.38;5094468;28;20055;-79
2023/06/27 07:36:18;;;;;;;7.55;4.60;;;;;;;30.66;39.76;100528.66;5094930;28;20386;-86
2023/06/27 07:38:47;;;;;;;6.75;4.43;;;;;;;30.66;39.18;100523.00;5086405;28;20032;-84
2023/06/27 07:41:16;;;;;;;5.60;4.30;;;;;;;30.60;40.19;100525.50;5097714;28;20056;-84
2023/06/27 07:43:45;;;;;;;6.30;4.10;;;;;;;30.60;40.08;100524.69;5076577;28;20041;-85
2023/06/27 07:46:13;;;;;;;5.78;4.00;;;;;;;30.65;40.80;100532.69;5093898;28;20040;-86
2023/06/27 07:48:45;;;;;;;4.72;4.03;;;;;;;30.68;41.54;100531.84;5077415;28;20056;-85
2023/06/27 07:51:15;;;;;;;8.95;4.35;;;;;;;30.66;40.88;100535.09;5081420;28;20044;-82
2023/06/27 07:53:51;;;;;;;7.20;4.38;;;;;;;30.88;40.27;100534.06;5088821;28;20050;-82
2023/06/27 07:56:20;;;;;;;9.02;4.30;;;;;;;31.10;40.45;100540.25;5095345;28;20047;-87
2023/06/27 07:58:51;;;;;;;8.55;4.55;;;;;;;31.14;40.55;100534.53;5093439;28;20040;-83
2023/06/27 08:01:20;;;;;;;7.00;4.30;;;;;;;31.24;40.86;100544.91;5093441;28;20060;-85
2023/06/27 08:03:49;;;;;;;7.03;4.97;;;;;;;31.25;40.58;100532.38;5076071;28;20048;-84
2023/06/27 08:06:18;;;;;;;9.43;4.57;;;;;;;31.19;41.49;100529.22;5093085;28;20048;-83
2023/06/27 08:08:47;;;;;;;6.13;4.45;;;;;;;31.30;41.38;100539.59;5093913;28;20392;-83
2023/06/27 08:11:15;;;;;;;10.38;5.60;;;;;;;31.22;40.98;100541.69;5091891;28;20051;-85
2023/06/27 08:13:44;;;;;;;5.43;4.45;;;;;;;31.17;40.29;100539.34;5073075;28;20665;-84
2023/06/27 08:16:12;;;;;;;6.93;4.82;;;;;;;31.05;41.34;100533.03;5072977;28;20056;-83
2023/06/27 08:18:42;;;;;;;6.80;5.30;;;;;;;30.98;43.33;100544.41;5091987;28;20135;-85
2023/06/27 08:21:10;;;;;;;6.95;4.63;;;;;;;30.88;43.90;100523.56;5090716;28;20402;-85
2023/06/27 08:23:39;;;;;;;7.40;4.97;;;;;;;30.99;43.37;100517.78;5089438;28;20036;-83
2023/06/27 08:26:16;;;;;;;7.80;4.75;;;;;;;31.02;44.30;100527.44;5092586;28;20299;-83
2023/06/27 08:28:45;;;;;;;8.35;4.90;;;;;;;31.09;43.17;100528.13;5091598;28;20060;-83
2023/06/27 08:31:13;;;;;;;6.97;4.82;;;;;;;31.20;40.51;100524.38;5092758;28;20040;-84
2023/06/27 08:33:42;;;;;;;5.43;4.47;;;;;;;31.40;42.21;100523.69;5091064;28;20048;-83
2023/06/27 08:36:11;;;;;;;6.38;4.63;;;;;;;31.50;41.40;100519.91;5090215;28;20047;-83
2023/06/27 08:38:39;;;;;;;8.68;4.28;;;;;;;31.35;40.80;100511.66;5091494;28;20048;-83
2023/06/27 08:41:09;;;;;;;7.22;5.10;;;;;;;31.46;41.37;100522.00;5092766;28;20071;-84
2023/06/27 08:43:39;;;;;;;5.93;4.40;;;;;;;31.39;41.76;100522.91;5083921;28;20049;-83
2023/06/27 08:46:09;;;;;;;5.72;4.60;;;;;;;31.47;41.38;100523.63;5082907;28;20043;-83
2023/06/27 08:48:40;;;;;;;6.03;4.60;;;;;;;31.48;41.08;100516.72;5093577;28;20055;-82
2023/06/27 08:51:15;;;;;;;10.02;5.10;;;;;;;31.61;41.24;100509.25;5093005;28;20032;-83
2023/06/27 08:53:48;;;;;;;7.82;4.57;;;;;;;31.58;41.31;100512.94;5092234;28;20055;-86
2023/06/27 08:56:19;;;;;;;9.27;5.03;;;;;;;31.71;41.73;100503.84;5104240;28;20367;-85
2023/06/27 08:58:59;;;;;;;6.03;4.60;;;;;;;31.74;41.28;100508.63;5093459;28;20305;-84
2023/06/27 09:01:31;;;;;;;8.07;4.50;;;;;;;31.80;41.19;100503.31;5093219;28;20070;-84
2023/06/27 09:04:01;;;;;;;6.97;4.90;;;;;;;31.97;40.75;100507.06;5092582;28;20055;-84
2023/06/27 09:06:30;;;;;;;8.10;5.05;;;;;;;31.96;39.76;100503.44;5094193;28;20052;-83
2023/06/27 09:09:00;;;;;;;6.00;4.38;;;;;;;32.11;39.65;100503.97;5093315;28;20040;-83
2023/06/27 09:11:30;;;;;;;8.10;5.20;;;;;;;32.13;40.22;100495.88;5090090;28;20048;-85
2023/06/27 09:13:59;;;;;;;5.35;4.53;;;;;;;32.25;38.52;100513.47;5080600;28;20402;-84
2023/06/27 09:16:28;;;;;;;8.55;4.78;;;;;;;32.13;38.23;100500.72;5093114;28;20044;-85
2023/06/27 09:18:56;;;;;;;7.32;4.40;;;;;;;32.27;39.13;100494.81;5092324;28;20700;-85
2023/06/27 09:21:26;;;;;;;6.55;4.70;;;;;;;32.34;37.57;100499.53;5091811;28;20051;-85
2023/06/27 09:23:57;;;;;;;9.23;5.00;;;;;;;32.26;38.03;100498.06;5090854;28;20052;-85
2023/06/27 09:26:27;;;;;;;6.22;4.63;;;;;;;32.10;37.27;100485.41;5091926;28;20043;-84
2023/06/27 09:28:59;;;;;;;7.43;4.90;;;;;;;32.22;37.78;100497.31;5092089;28;20387;-85
2023/06/27 09:31:29;;;;;;;6.28;4.90;;;;;;;32.32;37.08;100496.34;5091948;28;20379;-85
2023/06/27 09:34:11;;;;;;;8.90;4.90;;;;;;;32.37;36.97;100492.19;5092341;28;20044;-83
2023/06/27 09:36:41;;;;;;;9.73;4.97;;;;;;;32.47;37.77;100498.91;5092445;28;20493;-86
2023/06/27 09:39:16;;;;;;;5.90;4.18;;;;;;;32.70;36.98;100501.66;5073850;28;20067;-85
2023/06/27 09:41:47;;;;;;;5.53;4.53;;;;;;;32.66;38.73;100492.47;5090671;28;20048;-84
2023/06/27 09:44:26;;;;;;;8.15;4.97;;;;;;;32.79;37.44;100500.28;5091666;28;20071;-85
2023/06/27 09:46:54;;;;;;;6.75;4.93;;;;;;;32.80;36.95;100505.50;5090529;28;20048;-87
2023/06/27 09:49:24;;;;;;;9.07;4.70;;;;;;;32.77;37.04;100508.41;5090177;28;20052;-88
2023/06/27 09:51:53;;;;;;;6.45;4.85;;;;;;;32.90;37.33;100489.53;5073578;28;20070;-85
2023/06/27 09:54:23;;;;;;;7.93;4.63;;;;;;;32.92;37.19;100501.22;5074006;28;20390;-85
2023/06/27 09:56:54;;;;;;;5.63;4.53;;;;;;;33.00;37.21;100510.41;5090309;28;20067;-84
2023/06/27 09:59:26;;;;;;;9.60;4.63;;;;;;;32.85;36.27;100496.50;5091672;28;20048;-85
2023/06/27 10:01:55;;;;;;;10.32;5.13;;;;;;;32.73;36.94;100500.00;5090875;28;20063;-84
2023/06/27 10:04:24;;;;;;;7.05;4.30;;;;;;;32.52;36.95;100489.91;5074272;28;20071;-84
2023/06/27 10:06:56;;;;;;;7.15;4.45;;;;;;;32.74;37.33;100504.41;5090906;28;20055;-85
2023/06/27 10:09:25;;;;;;;5.13;4.43;;;;;;;32.78;36.74;100481.69;5091916;28;20083;-84
2023/06/27 10:11:53;;;;;;;8.13;5.13;;;;;;;32.75;37.08;100494.72;5093193;28;20055;-90
2023/06/27 10:14:22;;;;;;;7.25;4.80;;;;;;;32.74;36.86;100495.13;5092662;28;20074;-84
2023/06/27 10:16:52;;;;;;;5.47;4.35;;;;;;;32.70;36.29;100487.50;5092841;28;20395;-86
2023/06/27 10:19:21;;;;;;;9.57;4.30;;;;;;;32.94;36.66;100486.63;5091611;28;20036;-86
2023/06/27 10:21:50;;;;;;;5.60;4.55;;;;;;;33.06;36.35;100485.16;5094008;28;20556;-84
2023/06/27 10:24:19;;;;;;;6.03;4.07;;;;;;;33.00;36.04;100482.06;5093757;28;20048;-85
2023/06/27 10:26:51;;;;;;;6.78;4.75;;;;;;;33.02;36.39;100479.56;5090359;28;20047;-85
2023/06/27 10:29:31;;;;;;;7.13;4.95;;;;;;;33.01;35.76;100472.31;5060830;28;20052;-85
2023/06/27 10:32:02;;;;;;;5.55;4.15;;;;;;;33.01;35.20;100480.00;5083905;28;20036;-85
2023/06/27 10:34:39;;;;;;;7.50;4.38;;;;;;;33.17;35.17;100485.72;5058232;28;20044;-86
2023/06/27 10:37:10;;;;;;;5.97;4.45;;;;;;;33.13;35.39;100476.47;5074119;28;20057;-85
2023/06/27 10:39:41;;;;;;;6.35;4.65;;;;;;;33.21;35.24;100460.91;5074595;28;20052;-85
2023/06/27 10:42:17;;;;;;;5.00;4.20;;;;;;;33.39;34.54;100468.19;5073519;28;20412;-84
2023/06/27 10:45:08;;;;;;;5.50;4.15;;;;;;;33.50;34.36;100462.25;5094932;28;20044;-85
2023/06/27 10:47:44;;;;;;;8.32;5.10;;;;;;;33.55;34.78;100446.75;5094148;28;20470;-87
2023/06/27 10:50:21;;;;;;;4.75;4.25;;;;;;;33.56;33.49;100440.66;5059573;28;20087;-87
2023/06/27 10:53:00;;;;;;;4.97;4.47;;;;;;;33.55;33.46;100455.28;5073106;28;20434;-86
2023/06/27 10:55:29;;;;;;;6.53;4.70;;;;;;;33.62;33.38;100440.94;5087540;28;20055;-90
2023/06/27 10:58:14;;;;;;;5.10;4.10;;;;;;;33.75;33.34;100438.97;5076710;28;20070;-86
2023/06/27 11:00:46;;;;;;;7.78;4.50;;;;;;;33.36;35.15;100432.22;5094551;28;20040;-87
2023/06/27 11:03:28;;;;;;;7.30;4.40;;;;;;;33.50;35.33;100428.22;5092989;28;20071;-87
2023/06/27 11:05:58;;;;;;;6.60;4.38;;;;;;;33.63;35.54;100426.28;5093320;28;20052;-85
2023/06/27 11:08:29;;;;;;;6.15;5.10;;;;;;;33.67;35.52;100419.72;5093543;28;20047;-85
2023/06/27 11:11:00;;;;;;;5.80;4.65;;;;;;;33.82;35.10;100425.81;5094585;28;20044;-85
2023/06/27 11:13:50;;;;;;;8.30;5.00;;;;;;;34.02;35.67;100420.00;5094282;28;20056;-84
2023/06/27 11:16:23;;;;;;;8.20;4.57;;;;;;;33.85;35.64;100420.06;5090676;28;20052;-85
2023/06/27 11:18:52;;;;;;;6.30;5.10;;;;;;;33.80;35.57;100419.81;5074422;28;20067;-86
2023/06/27 11:21:22;;;;;;;6.25;4.15;;;;;;;34.02;35.78;100411.50;5074144;28;20525;-84
2023/06/27 11:23:54;;;;;;;5.25;4.60;;;;;;;34.12;35.56;100403.94;5072743;28;20075;-85
2023/06/27 11:26:23;;;;;;;9.13;4.93;;;;;;;34.22;35.92;100413.41;5074257;28;20079;-85
2023/06/27 11:28:52;;;;;;;6.85;5.30;;;;;;;34.27;35.17;100392.97;5073216;28;20048;-85
2023/06/27 11:31:25;;;;;;;6.47;5.15;;;;;;;34.12;35.33;100404.75;5092927;28;20048;-86
2023/06/27 11:33:57;;;;;;;8.35;5.63;;;;;;;34.42;35.68;100397.00;5093718;28;20040;-85
2023/06/27 11:36:26;;;;;;;7.32;4.90;;;;;;;34.41;35.49;100389.69;5092947;28;20048;-85